METAR Data
IDs: Format: Raw Decoded Include TAF

Data at: 2157 UTC 02 Aug 2021

UKHH 022130Z 33002MPS 290V010 9999 FEW050CB 24/18 Q1009 R25/0///81 NOSIG